Woodway, Texas
Current Conditions -  °F | °C
As of 11:55 PM on Saturday 22 Nov 2014 (Local Time) from KPWG Reporting Station
Clear Clear  
Wind Chill: 57°   Ceiling: Unl
Heat Index: 57°   Visibility: 10mi
Dew Point: 52°   Wind: 9mph
Humidity: 82%   Direction: 120°ESE
Pressure: 29.69"   Gusts: NA
Location:  31.5°N, 97.22°W
Report Text: KPWG 230555Z AUTO 12008KT 10SM CLR 14/11 A2969 RMK AO1 60028 10160 20140 402000140 57041
Loading
Personal Weather Stations






























Interactive Weather Map New forecast layout! Learn more

10-Day Weather Forecast

Advertisements
Track Severe Weather on mobile